createdAt,value
2024-03-16T00:00:20.606Z,58.40
2024-03-16T00:00:52.558Z,58.42
2024-03-16T00:01:24.628Z,58.33
2024-03-16T00:01:56.662Z,58.74
2024-03-16T00:02:28.722Z,58.52
2024-03-16T00:03:01.234Z,58.79
2024-03-16T00:03:33.446Z,58.67
2024-03-16T00:04:05.558Z,58.71
2024-03-16T00:04:37.602Z,58.62
2024-03-16T00:05:09.551Z,58.53
2024-03-16T00:05:41.781Z,58.41
2024-03-16T00:06:13.719Z,58.86
2024-03-16T00:06:45.876Z,58.55
2024-03-16T00:07:17.949Z,58.56
2024-03-16T00:07:50.692Z,58.43
2024-03-16T00:08:22.608Z,58.83
2024-03-16T00:08:54.588Z,58.68
2024-03-16T00:09:26.570Z,58.83
2024-03-16T00:09:58.638Z,58.87
2024-03-16T00:10:30.603Z,59.03
2024-03-16T00:11:03.075Z,58.89
2024-03-16T00:11:35.131Z,58.97
2024-03-16T00:12:07.399Z,58.88
2024-03-16T00:12:39.444Z,59.03
2024-03-16T00:13:11.500Z,58.91
2024-03-16T00:13:43.584Z,58.76
2024-03-16T00:14:15.555Z,58.84
2024-03-16T00:14:49.561Z,58.83
2024-03-16T00:15:21.593Z,59.05
2024-03-16T00:15:53.662Z,58.95
2024-03-16T00:16:25.635Z,58.86
2024-03-16T00:16:57.555Z,59.04
2024-03-16T00:17:29.558Z,58.96
2024-03-16T00:18:02.048Z,59.41
2024-03-16T00:18:37.677Z,59.22
2024-03-16T00:19:09.852Z,59.30
2024-03-16T00:19:41.828Z,59.25
2024-03-16T00:20:13.839Z,59.57
2024-03-16T00:20:45.784Z,59.40
2024-03-16T00:21:17.813Z,59.49
2024-03-16T00:21:49.878Z,59.62
2024-03-16T00:22:22.647Z,59.25
2024-03-16T00:22:54.565Z,59.74
2024-03-16T00:23:26.585Z,59.60
2024-03-16T00:23:58.538Z,59.50
2024-03-16T00:24:31.444Z,59.38
2024-03-16T00:25:03.640Z,59.53
2024-03-16T00:25:35.700Z,59.32
2024-03-16T00:26:08.914Z,59.46
2024-03-16T00:26:41.894Z,59.30
2024-03-16T00:27:14.727Z,59.40
2024-03-16T00:27:46.762Z,59.72
2024-03-16T00:28:18.709Z,59.92
2024-03-16T00:28:52.348Z,59.90
2024-03-16T00:29:24.789Z,60.15
2024-03-16T00:29:56.721Z,60.30
2024-03-16T00:30:28.817Z,60.01
2024-03-16T00:31:02.140Z,59.88
2024-03-16T00:31:38.054Z,60.00
2024-03-16T00:32:10.120Z,60.25
2024-03-16T00:32:42.257Z,60.34
2024-03-16T00:33:14.526Z,60.85
2024-03-16T00:33:46.597Z,60.34
2024-03-16T00:34:18.612Z,60.52
2024-03-16T00:34:50.581Z,60.43
2024-03-16T00:35:22.510Z,60.40
2024-03-16T00:35:54.473Z,60.43
2024-03-16T00:36:26.436Z,60.41
2024-03-16T00:36:58.744Z,60.49
2024-03-16T00:37:30.787Z,60.74
2024-03-16T00:38:02.716Z,60.76
2024-03-16T00:38:34.648Z,61.03
2024-03-16T00:39:16.841Z,60.49
2024-03-16T00:39:49.305Z,60.52
2024-03-16T00:40:21.882Z,60.27
2024-03-16T00:40:54.683Z,60.26
2024-03-16T00:41:26.732Z,60.33
2024-03-16T00:42:04.090Z,60.34
2024-03-16T00:42:37.050Z,60.57
2024-03-16T00:43:09.176Z,60.66
2024-03-16T00:43:41.183Z,60.19
2024-03-16T00:44:13.121Z,60.25
2024-03-16T00:44:45.122Z,60.43
2024-03-16T00:45:17.132Z,60.30
2024-03-16T00:45:49.141Z,60.61
2024-03-16T00:46:21.104Z,60.54
2024-03-16T00:46:53.079Z,60.53
2024-03-16T00:47:25.080Z,60.67
2024-03-16T00:47:57.691Z,60.68
2024-03-16T00:48:29.737Z,60.71
2024-03-16T00:49:01.727Z,60.80
2024-03-16T00:49:33.802Z,60.76
2024-03-16T00:50:06.426Z,60.77
2024-03-16T00:50:38.366Z,60.51
2024-03-16T00:51:11.778Z,60.57
2024-03-16T00:51:44.079Z,60.80
2024-03-16T00:52:16.068Z,60.75
2024-03-16T00:52:48.132Z,60.95
2024-03-16T00:53:20.114Z,61.09
2024-03-16T00:53:52.094Z,60.81
2024-03-16T00:54:24.440Z,60.90
2024-03-16T00:54:57.883Z,61.07
2024-03-16T00:55:29.877Z,60.94
2024-03-16T00:56:01.932Z,60.92
2024-03-16T00:56:34.006Z,60.85
2024-03-16T00:57:06.033Z,60.94
2024-03-16T00:57:38.178Z,61.10
2024-03-16T00:58:10.235Z,60.83
2024-03-16T00:58:42.229Z,61.02
2024-03-16T00:59:14.620Z,61.05
2024-03-16T00:59:46.579Z,60.96
2024-03-16T01:00:19.573Z,61.05
2024-03-16T01:00:53.227Z,60.96
2024-03-16T01:01:25.404Z,61.10
2024-03-16T01:01:57.448Z,61.29
2024-03-16T01:02:30.409Z,61.28
2024-03-16T01:03:02.326Z,60.52
2024-03-16T01:03:34.279Z,61.00
2024-03-16T01:04:06.545Z,61.24
2024-03-16T01:04:38.564Z,61.22
2024-03-16T01:05:10.507Z,61.34
2024-03-16T01:05:42.436Z,61.30
2024-03-16T01:06:14.363Z,61.51
2024-03-16T01:06:46.443Z,61.41
2024-03-16T01:07:18.417Z,61.40
2024-03-16T01:07:50.359Z,61.43
2024-03-16T01:08:22.370Z,61.42
2024-03-16T01:08:54.296Z,61.41
2024-03-16T01:09:26.663Z,61.35
2024-03-16T01:09:58.757Z,61.47
2024-03-16T01:10:30.798Z,61.56
2024-03-16T01:11:02.733Z,61.77
2024-03-16T01:11:35.057Z,61.62
2024-03-16T01:12:07.908Z,61.56
2024-03-16T01:12:39.973Z,61.72
2024-03-16T01:13:11.968Z,61.82
2024-03-16T01:13:44.585Z,61.89
2024-03-16T01:14:16.523Z,62.08
2024-03-16T01:14:48.704Z,61.37
2024-03-16T01:15:22.413Z,61.40
2024-03-16T01:15:54.381Z,61.72
2024-03-16T01:16:27.285Z,61.66
2024-03-16T01:17:01.735Z,61.12
2024-03-16T01:17:33.787Z,60.86
2024-03-16T01:18:05.790Z,60.65
2024-03-16T01:18:41.152Z,60.47
2024-03-16T01:19:13.343Z,60.53
2024-03-16T01:19:45.480Z,60.39
2024-03-16T01:20:17.440Z,60.25
2024-03-16T01:20:49.376Z,60.16
2024-03-16T01:21:21.482Z,59.73
2024-03-16T01:21:53.463Z,60.12
2024-03-16T01:22:25.377Z,60.17
2024-03-16T01:22:58.930Z,59.57
2024-03-16T01:23:31.644Z,59.29
2024-03-16T01:24:04.417Z,59.27
2024-03-16T01:24:36.517Z,59.43
2024-03-16T01:25:08.555Z,59.55
2024-03-16T01:25:41.012Z,59.13
2024-03-16T01:26:12.935Z,58.87
2024-03-16T01:26:45.266Z,58.53
2024-03-16T01:27:17.309Z,58.72
2024-03-16T01:27:49.258Z,58.78
2024-03-16T01:28:21.638Z,59.29
2024-03-16T01:28:53.577Z,58.80
2024-03-16T01:29:25.640Z,58.90
2024-03-16T01:29:57.604Z,58.70
2024-03-16T01:30:29.569Z,58.96
2024-03-16T01:31:01.653Z,58.80
2024-03-16T01:31:33.662Z,58.67
2024-03-16T01:32:09.636Z,58.78
2024-03-16T01:32:41.693Z,58.88
2024-03-16T01:33:13.654Z,58.89
2024-03-16T01:33:45.672Z,58.57
2024-03-16T01:34:17.738Z,59.12
2024-03-16T01:34:49.748Z,59.37
2024-03-16T01:35:21.998Z,58.96
2024-03-16T01:35:57.321Z,59.03
2024-03-16T01:36:29.319Z,59.27
2024-03-16T01:37:01.468Z,59.28
2024-03-16T01:37:33.484Z,59.24
2024-03-16T01:38:05.406Z,59.17
2024-03-16T01:38:37.749Z,59.06
2024-03-16T01:39:13.411Z,59.00
2024-03-16T01:39:45.892Z,58.93
2024-03-16T01:40:18.134Z,58.71
2024-03-16T01:40:50.069Z,58.15
2024-03-16T01:41:21.996Z,57.73
2024-03-16T01:41:53.921Z,57.94
2024-03-16T01:42:25.873Z,57.84
2024-03-16T01:42:57.994Z,58.13
2024-03-16T01:43:30.095Z,58.28
2024-03-16T01:44:19.815Z,58.44
2024-03-16T01:45:08.078Z,58.51
2024-03-16T01:45:43.815Z,58.24
2024-03-16T01:46:17.057Z,58.22
2024-03-16T01:46:49.350Z,58.35
2024-03-16T01:47:21.373Z,58.27
2024-03-16T01:47:56.662Z,57.87
2024-03-16T01:48:28.894Z,57.47
2024-03-16T01:49:00.920Z,57.39
2024-03-16T01:49:32.870Z,57.46
2024-03-16T01:50:05.143Z,57.50
2024-03-16T01:50:41.804Z,57.28
2024-03-16T01:51:13.847Z,57.47
2024-03-16T01:51:45.818Z,57.25
2024-03-16T01:52:17.742Z,57.22
2024-03-16T01:52:49.853Z,57.06
2024-03-16T01:53:21.814Z,57.40
2024-03-16T01:53:53.750Z,57.41
2024-03-16T01:54:25.722Z,57.41
2024-03-16T01:54:57.798Z,57.52
2024-03-16T01:55:30.235Z,56.90
2024-03-16T01:56:02.228Z,57.12
2024-03-16T01:56:35.534Z,57.29
2024-03-16T01:57:07.507Z,57.18
2024-03-16T01:57:39.455Z,57.12
2024-03-16T01:58:11.475Z,57.40
2024-03-16T01:58:46.741Z,57.22
2024-03-16T01:59:19.274Z,57.58
2024-03-16T01:59:51.282Z,57.44
2024-03-16T02:00:23.226Z,57.27
2024-03-16T02:00:55.283Z,57.97
2024-03-16T02:01:27.451Z,58.09
2024-03-16T02:02:03.403Z,57.95
2024-03-16T02:02:42.967Z,57.77
2024-03-16T02:03:15.250Z,57.75
2024-03-16T02:03:47.940Z,57.64
2024-03-16T02:04:20.092Z,57.27
2024-03-16T02:04:52.031Z,57.62
2024-03-16T02:05:23.987Z,57.20
2024-03-16T02:05:55.901Z,57.49
2024-03-16T02:06:29.431Z,57.20
2024-03-16T02:07:10.066Z,57.09
2024-03-16T02:07:45.617Z,56.95
2024-03-16T02:08:17.610Z,57.08
2024-03-16T02:08:49.896Z,57.09
2024-03-16T02:09:22.495Z,56.57
2024-03-16T02:09:54.457Z,56.86
2024-03-16T02:10:26.382Z,56.87
2024-03-16T02:10:58.699Z,56.91
2024-03-16T02:11:30.729Z,56.75
2024-03-16T02:12:02.670Z,56.82
2024-03-16T02:12:34.705Z,56.83
2024-03-16T02:13:06.752Z,57.14
2024-03-16T02:13:38.793Z,57.07
2024-03-16T02:14:10.779Z,56.73
2024-03-16T02:14:43.544Z,56.85
2024-03-16T02:15:15.505Z,57.01
2024-03-16T02:15:47.480Z,56.85
2024-03-16T02:16:19.426Z,57.04
2024-03-16T02:16:51.523Z,56.97
2024-03-16T02:17:23.833Z,56.82
2024-03-16T02:17:55.842Z,56.82
2024-03-16T02:18:27.842Z,56.84
2024-03-16T02:18:59.860Z,56.97
2024-03-16T02:19:35.024Z,56.94
2024-03-16T02:20:10.586Z,56.89
2024-03-16T02:20:42.592Z,56.86
2024-03-16T02:21:14.502Z,56.63
2024-03-16T02:21:46.483Z,56.75
2024-03-16T02:22:19.641Z,57.14
2024-03-16T02:22:51.571Z,57.68
2024-03-16T02:23:23.747Z,57.59
2024-03-16T02:23:55.669Z,57.22
2024-03-16T02:24:27.727Z,57.02
2024-03-16T02:24:59.719Z,56.82
2024-03-16T02:25:31.749Z,57.29
2024-03-16T02:26:06.099Z,56.92
2024-03-16T02:26:38.247Z,56.82
2024-03-16T02:27:10.523Z,57.29
2024-03-16T02:27:42.561Z,57.17
2024-03-16T02:28:14.594Z,57.47
2024-03-16T02:28:47.190Z,57.37
2024-03-16T02:29:21.652Z,57.47
2024-03-16T02:29:53.599Z,57.75
2024-03-16T02:30:25.643Z,58.14
2024-03-16T02:30:57.660Z,58.05
2024-03-16T02:31:29.871Z,57.89
2024-03-16T02:32:02.036Z,57.61
2024-03-16T02:32:34.191Z,57.42
2024-03-16T02:33:08.435Z,57.35
2024-03-16T02:33:40.422Z,57.41
2024-03-16T02:34:14.191Z,57.54
2024-03-16T02:34:46.208Z,57.56
2024-03-16T02:35:18.153Z,57.72
2024-03-16T02:35:50.100Z,57.42
2024-03-16T02:36:24.200Z,57.54
2024-03-16T02:36:56.236Z,57.20
2024-03-16T02:37:28.282Z,57.35
2024-03-16T02:38:00.520Z,57.39
2024-03-16T02:38:32.439Z,57.76
2024-03-16T02:39:04.383Z,57.46
2024-03-16T02:39:36.514Z,57.30
2024-03-16T02:40:12.998Z,57.35
2024-03-16T02:40:45.079Z,57.09
2024-03-16T02:41:17.011Z,57.03
2024-03-16T02:41:48.920Z,57.18
2024-03-16T02:42:20.905Z,56.88
2024-03-16T02:42:53.110Z,57.13
2024-03-16T02:43:25.056Z,57.52
2024-03-16T02:43:57.593Z,57.41
2024-03-16T02:44:31.188Z,57.15
2024-03-16T02:45:03.926Z,56.96
2024-03-16T02:45:35.888Z,57.02
2024-03-16T02:46:07.943Z,56.89
2024-03-16T02:46:39.944Z,56.33
2024-03-16T02:47:11.870Z,56.85
2024-03-16T02:47:45.056Z,56.71
2024-03-16T02:48:17.065Z,56.72
2024-03-16T02:48:50.081Z,56.58
2024-03-16T02:49:22.469Z,56.44
2024-03-16T02:49:54.396Z,56.59
2024-03-16T02:50:26.293Z,56.56
2024-03-16T02:50:58.235Z,57.04
2024-03-16T02:51:30.183Z,56.95
2024-03-16T02:52:02.369Z,56.59
2024-03-16T02:52:34.328Z,56.60
2024-03-16T02:53:06.254Z,56.69
2024-03-16T02:53:38.158Z,56.71
2024-03-16T02:54:13.019Z,56.83
2024-03-16T02:54:45.006Z,57.13
2024-03-16T02:55:17.057Z,56.83
2024-03-16T02:55:49.064Z,56.46
2024-03-16T02:56:21.008Z,56.53
2024-03-16T02:56:53.186Z,56.31
2024-03-16T02:57:25.573Z,56.42
2024-03-16T02:57:57.556Z,56.02
2024-03-16T02:58:30.231Z,56.32
2024-03-16T02:59:02.299Z,56.43
2024-03-16T02:59:34.286Z,56.21
2024-03-16T03:00:12.791Z,56.10
2024-03-16T03:00:45.489Z,56.08
2024-03-16T03:01:18.215Z,56.16
2024-03-16T03:01:50.224Z,56.64
2024-03-16T03:02:25.520Z,56.58
2024-03-16T03:02:58.674Z,56.69
2024-03-16T03:03:30.721Z,56.50
2024-03-16T03:04:03.492Z,56.14
2024-03-16T03:04:35.623Z,56.43
2024-03-16T03:05:12.355Z,56.07
2024-03-16T03:05:44.562Z,56.08
2024-03-16T03:06:16.514Z,56.30
2024-03-16T03:06:48.599Z,56.20
2024-03-16T03:07:20.929Z,56.56
2024-03-16T03:07:53.953Z,56.46
2024-03-16T03:08:26.151Z,56.25
2024-03-16T03:08:58.063Z,56.02
2024-03-16T03:09:30.747Z,55.97
2024-03-16T03:10:02.825Z,56.01
2024-03-16T03:10:34.851Z,56.47
2024-03-16T03:11:06.814Z,56.32
2024-03-16T03:11:39.494Z,56.20
2024-03-16T03:12:11.546Z,56.60
2024-03-16T03:12:43.571Z,56.31
2024-03-16T03:13:15.810Z,56.35
2024-03-16T03:13:51.764Z,56.20
2024-03-16T03:14:23.681Z,56.15
2024-03-16T03:14:55.685Z,56.28
2024-03-16T03:15:28.344Z,56.36
2024-03-16T03:16:00.431Z,56.16
2024-03-16T03:16:32.421Z,56.23
2024-03-16T03:17:04.361Z,56.26
2024-03-16T03:17:36.311Z,56.07
2024-03-16T03:18:08.435Z,56.13
2024-03-16T03:18:40.485Z,56.13
2024-03-16T03:19:12.506Z,56.15
2024-03-16T03:19:46.155Z,56.32
2024-03-16T03:20:22.137Z,56.11
2024-03-16T03:20:54.081Z,56.01
2024-03-16T03:21:26.015Z,56.17
2024-03-16T03:21:58.019Z,56.06
2024-03-16T03:22:29.968Z,55.85
2024-03-16T03:23:01.926Z,56.05
2024-03-16T03:23:33.847Z,56.01
2024-03-16T03:24:05.978Z,55.87
2024-03-16T03:24:37.931Z,56.09
2024-03-16T03:25:11.498Z,56.23
2024-03-16T03:25:43.830Z,56.50
2024-03-16T03:26:18.174Z,56.45
2024-03-16T03:26:50.106Z,56.45
2024-03-16T03:27:22.044Z,56.37
2024-03-16T03:27:54.024Z,56.47
2024-03-16T03:28:26.291Z,56.42
2024-03-16T03:28:58.218Z,56.31
2024-03-16T03:29:30.192Z,56.38
2024-03-16T03:30:02.169Z,56.52
2024-03-16T03:30:34.225Z,56.87
2024-03-16T03:31:07.800Z,56.53
2024-03-16T03:31:39.739Z,56.44
2024-03-16T03:32:11.725Z,56.58
2024-03-16T03:32:43.682Z,56.62
2024-03-16T03:33:15.630Z,56.71
2024-03-16T03:33:47.571Z,56.66
2024-03-16T03:34:19.557Z,56.78
2024-03-16T03:34:51.530Z,56.60
2024-03-16T03:35:23.453Z,56.40
2024-03-16T03:35:55.365Z,56.26
2024-03-16T03:36:27.382Z,56.30
2024-03-16T03:37:00.005Z,56.40
2024-03-16T03:37:32.203Z,56.68
2024-03-16T03:38:04.948Z,56.88
2024-03-16T03:38:36.889Z,56.83
2024-03-16T03:39:08.819Z,56.73
2024-03-16T03:39:40.892Z,56.85
2024-03-16T03:40:13.127Z,56.56
2024-03-16T03:40:45.072Z,56.51
2024-03-16T03:41:17.068Z,56.68
2024-03-16T03:41:49.041Z,56.27
2024-03-16T03:42:26.392Z,56.41
2024-03-16T03:43:01.592Z,56.20
2024-03-16T03:43:34.815Z,56.45
2024-03-16T03:44:21.849Z,56.45
2024-03-16T03:45:12.292Z,56.05
2024-03-16T03:45:44.948Z,56.20
2024-03-16T03:46:43.212Z,57.50
2024-03-16T03:47:15.159Z,57.06
2024-03-16T03:48:02.521Z,57.25
2024-03-16T03:48:37.801Z,57.50
2024-03-16T03:49:13.146Z,58.70
2024-03-16T03:49:52.240Z,58.88
2024-03-16T03:50:30.519Z,59.78
2024-03-16T03:51:04.208Z,59.82
2024-03-16T03:51:36.136Z,59.58
2024-03-16T03:52:08.213Z,59.95
2024-03-16T03:52:40.178Z,60.31
2024-03-16T03:53:12.184Z,61.47
2024-03-16T03:53:44.344Z,61.48
2024-03-16T03:54:16.322Z,62.10
2024-03-16T03:54:48.256Z,62.37
2024-03-16T03:55:20.202Z,62.48
2024-03-16T03:55:52.177Z,62.48
2024-03-16T03:56:24.105Z,61.97
2024-03-16T03:56:56.157Z,61.76
2024-03-16T03:57:28.259Z,60.96
2024-03-16T03:58:01.793Z,61.13
2024-03-16T03:58:33.770Z,61.45
2024-03-16T03:59:05.706Z,61.66
2024-03-16T03:59:37.803Z,61.45
2024-03-16T04:00:10.158Z,61.29
2024-03-16T04:00:48.080Z,60.93
2024-03-16T04:01:20.221Z,60.74
2024-03-16T04:01:53.244Z,61.25
2024-03-16T04:02:25.256Z,61.63
2024-03-16T04:02:57.198Z,61.53
2024-03-16T04:03:29.161Z,62.58
2024-03-16T04:04:01.276Z,62.55
2024-03-16T04:04:33.195Z,62.60
2024-03-16T04:05:05.202Z,63.17
2024-03-16T04:05:37.786Z,63.37
2024-03-16T04:06:09.716Z,63.05
2024-03-16T04:06:46.270Z,63.41
2024-03-16T04:07:18.271Z,63.87
2024-03-16T04:07:50.218Z,64.09
2024-03-16T04:08:22.141Z,64.33
2024-03-16T04:08:54.090Z,64.47
2024-03-16T04:09:26.080Z,64.43
2024-03-16T04:09:58.038Z,64.75
2024-03-16T04:10:30.050Z,65.27
2024-03-16T04:11:07.071Z,65.46
2024-03-16T04:11:40.858Z,65.90
2024-03-16T04:12:13.952Z,67.03
2024-03-16T04:12:46.761Z,66.93
2024-03-16T04:13:18.818Z,67.69
2024-03-16T04:13:50.756Z,67.94
2024-03-16T04:14:22.679Z,68.00
2024-03-16T04:14:54.936Z,68.50
2024-03-16T04:15:27.216Z,68.12
2024-03-16T04:15:59.206Z,68.12
2024-03-16T04:16:31.140Z,68.20
2024-03-16T04:17:03.080Z,68.06
2024-03-16T04:17:35.023Z,67.92
2024-03-16T04:18:07.086Z,68.23
2024-03-16T04:18:39.134Z,68.21
2024-03-16T04:19:11.478Z,67.74
2024-03-16T04:19:45.748Z,67.94
2024-03-16T04:20:20.943Z,68.31
2024-03-16T04:20:54.148Z,68.47
2024-03-16T04:21:26.232Z,68.49
2024-03-16T04:21:58.401Z,68.33
2024-03-16T04:22:30.374Z,69.18
2024-03-16T04:23:02.876Z,69.59
2024-03-16T04:23:35.135Z,69.38
2024-03-16T04:24:07.322Z,69.60
2024-03-16T04:24:39.299Z,70.30
2024-03-16T04:25:13.652Z,70.76
2024-03-16T04:25:45.733Z,71.20
2024-03-16T04:26:17.696Z,71.30
2024-03-16T04:26:49.630Z,71.14
2024-03-16T04:27:21.613Z,69.55
2024-03-16T04:27:53.563Z,69.78
2024-03-16T04:28:25.545Z,69.89
2024-03-16T04:28:57.677Z,68.64
2024-03-16T04:29:29.833Z,68.15
2024-03-16T04:30:01.986Z,67.98
2024-03-16T04:30:34.015Z,67.72
2024-03-16T04:31:06.242Z,67.70
2024-03-16T04:31:39.147Z,66.93
2024-03-16T04:32:11.084Z,67.14
2024-03-16T04:32:43.081Z,67.01
2024-03-16T04:33:16.930Z,67.53
2024-03-16T04:33:48.962Z,67.35
2024-03-16T04:34:24.231Z,67.73
2024-03-16T04:34:56.354Z,68.22
2024-03-16T04:35:28.518Z,68.42
2024-03-16T04:36:01.008Z,68.35
2024-03-16T04:36:32.954Z,68.42
2024-03-16T04:37:05.030Z,68.92
2024-03-16T04:37:37.167Z,69.52
2024-03-16T04:38:10.622Z,69.70
2024-03-16T04:38:43.035Z,69.41
2024-03-16T04:39:14.969Z,69.80
2024-03-16T04:39:47.219Z,69.32
2024-03-16T04:40:19.944Z,69.33
2024-03-16T04:40:51.992Z,69.14
2024-03-16T04:41:23.909Z,69.72
2024-03-16T04:41:55.878Z,70.29
2024-03-16T04:42:28.025Z,70.87
2024-03-16T04:43:00.338Z,70.57
2024-03-16T04:43:32.273Z,69.93
2024-03-16T04:44:04.369Z,70.00
2024-03-16T04:44:36.327Z,70.13
2024-03-16T04:45:08.971Z,70.51
2024-03-16T04:45:40.986Z,70.53
2024-03-16T04:46:13.028Z,69.98
2024-03-16T04:46:45.057Z,70.10
2024-03-16T04:47:16.995Z,69.30
2024-03-16T04:47:49.099Z,69.35
2024-03-16T04:48:21.043Z,69.23
2024-03-16T04:48:52.973Z,68.97
2024-03-16T04:49:25.243Z,68.74
2024-03-16T04:49:57.191Z,68.60
2024-03-16T04:50:29.235Z,68.09
2024-03-16T04:51:01.199Z,67.08
2024-03-16T04:51:33.158Z,67.57
2024-03-16T04:52:05.231Z,67.45
2024-03-16T04:52:37.272Z,67.84
2024-03-16T04:53:09.247Z,67.83
2024-03-16T04:53:41.313Z,67.90
2024-03-16T04:54:13.248Z,68.26
2024-03-16T04:54:46.452Z,68.33
2024-03-16T04:55:18.458Z,68.66
2024-03-16T04:55:52.742Z,68.57
2024-03-16T04:56:25.137Z,68.61
2024-03-16T04:56:57.076Z,69.12
2024-03-16T04:57:29.077Z,69.45
2024-03-16T04:58:05.573Z,69.15
2024-03-16T04:58:37.648Z,68.63
2024-03-16T04:59:11.746Z,68.74
2024-03-16T04:59:43.709Z,68.99
2024-03-16T05:00:15.744Z,69.00
2024-03-16T05:00:47.782Z,68.71
2024-03-16T05:01:19.829Z,68.71
2024-03-16T05:01:51.936Z,68.60
2024-03-16T05:02:23.895Z,68.86
2024-03-16T05:02:55.820Z,69.05
2024-03-16T05:03:28.242Z,68.80
2024-03-16T05:04:00.368Z,68.62
2024-03-16T05:04:32.322Z,68.99
2024-03-16T05:05:05.900Z,68.77
2024-03-16T05:05:37.879Z,69.03
2024-03-16T05:06:09.787Z,69.23
2024-03-16T05:06:41.917Z,69.28
2024-03-16T05:07:13.920Z,69.29
2024-03-16T05:07:45.927Z,68.77
2024-03-16T05:08:18.321Z,69.13
2024-03-16T05:08:50.318Z,69.33
2024-03-16T05:09:22.354Z,70.05
2024-03-16T05:09:54.316Z,70.23
2024-03-16T05:10:26.435Z,70.41
2024-03-16T05:11:00.238Z,70.89
2024-03-16T05:11:33.037Z,70.67
2024-03-16T05:12:05.687Z,70.55
2024-03-16T05:12:37.707Z,70.49
2024-03-16T05:13:12.333Z,70.74
2024-03-16T05:13:44.630Z,70.71
2024-03-16T05:14:16.672Z,71.25
2024-03-16T05:14:48.680Z,70.93
2024-03-16T05:15:20.621Z,71.48
2024-03-16T05:15:52.554Z,71.07
2024-03-16T05:16:24.503Z,70.33
2024-03-16T05:16:56.544Z,70.27
2024-03-16T05:17:28.523Z,70.18
2024-03-16T05:18:00.525Z,70.13
2024-03-16T05:18:32.584Z,70.40
2024-03-16T05:19:05.850Z,70.24
2024-03-16T05:19:37.866Z,69.94
2024-03-16T05:20:13.187Z,70.23
2024-03-16T05:20:46.021Z,70.32
2024-03-16T05:21:18.027Z,70.04
2024-03-16T05:21:49.987Z,70.01
2024-03-16T05:22:22.036Z,69.93
2024-03-16T05:22:54.023Z,69.61
2024-03-16T05:23:26.129Z,69.81
2024-03-16T05:23:58.370Z,69.64
2024-03-16T05:24:30.320Z,69.62
2024-03-16T05:25:02.337Z,69.60
2024-03-16T05:25:34.300Z,68.83
2024-03-16T05:26:06.309Z,68.99
2024-03-16T05:26:39.325Z,68.97
2024-03-16T05:27:11.490Z,69.03
2024-03-16T05:27:44.219Z,68.64
2024-03-16T05:28:17.973Z,68.55
2024-03-16T05:28:50.504Z,68.53
2024-03-16T05:29:22.410Z,68.63
2024-03-16T05:29:54.327Z,68.68
2024-03-16T05:30:26.265Z,68.74
2024-03-16T05:30:58.239Z,68.79
2024-03-16T05:31:32.711Z,69.04
2024-03-16T05:32:04.769Z,68.97
2024-03-16T05:32:36.847Z,68.69
2024-03-16T05:33:09.006Z,68.64
2024-03-16T05:33:40.971Z,68.67
2024-03-16T05:34:13.016Z,68.47
2024-03-16T05:34:45.182Z,68.25
2024-03-16T05:35:17.370Z,68.54
2024-03-16T05:35:49.317Z,68.24
2024-03-16T05:36:21.333Z,68.01
2024-03-16T05:36:53.349Z,68.14
2024-03-16T05:37:27.208Z,68.17
2024-03-16T05:37:59.860Z,68.05
2024-03-16T05:38:31.780Z,68.07
2024-03-16T05:39:03.953Z,68.13
2024-03-16T05:39:35.916Z,68.48
2024-03-16T05:40:11.393Z,68.68
2024-03-16T05:40:45.008Z,68.86
2024-03-16T05:41:17.364Z,68.69
2024-03-16T05:41:49.524Z,68.69
2024-03-16T05:42:21.516Z,68.67
2024-03-16T05:42:54.040Z,68.94
2024-03-16T05:43:26.365Z,68.75
2024-03-16T05:43:58.381Z,68.05
2024-03-16T05:44:30.308Z,68.02
2024-03-16T05:45:02.238Z,67.61
2024-03-16T05:45:34.190Z,67.64
2024-03-16T05:46:06.252Z,67.48
2024-03-16T05:46:38.193Z,67.34
2024-03-16T05:47:10.121Z,67.36
2024-03-16T05:47:42.512Z,67.19
2024-03-16T05:48:14.614Z,67.43
2024-03-16T05:48:46.788Z,67.03
2024-03-16T05:49:19.807Z,67.59
2024-03-16T05:49:51.738Z,67.18
2024-03-16T05:50:23.694Z,67.44
2024-03-16T05:50:56.804Z,68.07
2024-03-16T05:51:30.099Z,67.65
2024-03-16T05:52:02.312Z,68.37
2024-03-16T05:52:35.458Z,68.14
2024-03-16T05:53:07.378Z,67.41
2024-03-16T05:53:39.299Z,67.35
2024-03-16T05:54:11.275Z,67.36
2024-03-16T05:54:43.256Z,67.06
2024-03-16T05:55:16.889Z,67.38
2024-03-16T05:55:48.864Z,67.05
2024-03-16T05:56:20.813Z,67.05
2024-03-16T05:56:52.758Z,67.17
2024-03-16T05:57:25.401Z,67.13
2024-03-16T05:57:57.399Z,66.97
2024-03-16T05:58:29.910Z,67.02
2024-03-16T05:59:02.135Z,66.87
2024-03-16T05:59:34.848Z,67.11
2024-03-16T06:00:14.996Z,67.07
2024-03-16T06:00:47.129Z,66.84
2024-03-16T06:01:19.737Z,66.54
2024-03-16T06:01:51.834Z,66.65
2024-03-16T06:02:23.794Z,66.94
2024-03-16T06:02:57.253Z,66.34
2024-03-16T06:03:30.121Z,66.14
2024-03-16T06:04:02.128Z,66.12
2024-03-16T06:04:35.173Z,66.64
2024-03-16T06:05:07.820Z,66.63
2024-03-16T06:05:39.757Z,66.64
2024-03-16T06:06:11.679Z,66.82
2024-03-16T06:06:43.689Z,66.54
2024-03-16T06:07:16.401Z,66.47
2024-03-16T06:07:48.835Z,67.02
2024-03-16T06:08:20.780Z,66.35
2024-03-16T06:08:52.758Z,66.76
2024-03-16T06:09:25.590Z,66.89
2024-03-16T06:09:57.632Z,66.97
2024-03-16T06:10:29.663Z,67.32
2024-03-16T06:11:01.647Z,67.59
2024-03-16T06:11:33.682Z,67.69
2024-03-16T06:12:05.758Z,67.05
2024-03-16T06:12:38.807Z,66.98
2024-03-16T06:13:14.611Z,66.14
2024-03-16T06:13:46.570Z,66.06
2024-03-16T06:14:18.532Z,66.00
2024-03-16T06:14:50.742Z,66.53
2024-03-16T06:15:22.767Z,67.22
2024-03-16T06:15:54.804Z,66.39
2024-03-16T06:16:26.747Z,65.65
2024-03-16T06:16:58.754Z,65.85
2024-03-16T06:17:30.787Z,66.36
2024-03-16T06:18:03.036Z,66.17
2024-03-16T06:18:34.998Z,65.95
2024-03-16T06:19:07.693Z,66.00
2024-03-16T06:19:40.197Z,66.27
2024-03-16T06:20:14.746Z,66.30
2024-03-16T06:20:46.686Z,66.56
2024-03-16T06:21:18.750Z,66.23
2024-03-16T06:21:51.792Z,66.44
2024-03-16T06:22:23.798Z,66.19
2024-03-16T06:22:57.036Z,66.02
2024-03-16T06:23:28.995Z,65.56
2024-03-16T06:24:01.114Z,65.67
2024-03-16T06:24:33.078Z,65.40
2024-03-16T06:25:05.773Z,65.80
2024-03-16T06:25:48.212Z,65.54
2024-03-16T06:26:20.595Z,66.00
2024-03-16T06:27:01.769Z,66.67
2024-03-16T06:27:35.069Z,66.25
2024-03-16T06:28:07.893Z,65.76
2024-03-16T06:28:40.921Z,65.95
2024-03-16T06:29:13.551Z,65.80
2024-03-16T06:29:56.566Z,66.22
2024-03-16T06:30:29.640Z,66.37
2024-03-16T06:31:09.140Z,66.57
2024-03-16T06:31:42.530Z,66.45
2024-03-16T06:32:21.394Z,66.54
2024-03-16T06:33:12.083Z,66.67
2024-03-16T06:33:46.940Z,66.11
2024-03-16T06:34:20.340Z,66.37
2024-03-16T06:34:52.410Z,65.65
2024-03-16T06:35:24.478Z,65.75
2024-03-16T06:35:56.494Z,65.87
2024-03-16T06:36:29.322Z,65.98
2024-03-16T06:37:02.416Z,66.33
2024-03-16T06:37:34.406Z,65.84
2024-03-16T06:38:06.346Z,66.14
2024-03-16T06:38:38.552Z,65.72
2024-03-16T06:39:13.525Z,65.76
2024-03-16T06:39:45.516Z,65.47
2024-03-16T06:40:17.718Z,65.88
2024-03-16T06:40:51.014Z,65.48
2024-03-16T06:41:22.938Z,65.31
2024-03-16T06:41:54.928Z,65.26
2024-03-16T06:42:26.942Z,65.48
2024-03-16T06:42:59.127Z,65.00
2024-03-16T06:43:31.096Z,65.52
2024-03-16T06:44:03.982Z,65.39
2024-03-16T06:44:35.960Z,65.65
2024-03-16T06:45:08.210Z,66.07
2024-03-16T06:45:40.548Z,66.38
2024-03-16T06:46:12.730Z,65.92
2024-03-16T06:46:44.874Z,65.73
2024-03-16T06:47:16.857Z,65.72
2024-03-16T06:47:48.825Z,65.59
2024-03-16T06:48:20.822Z,65.55
2024-03-16T06:48:52.798Z,65.88
2024-03-16T06:49:24.708Z,66.21
2024-03-16T06:49:56.628Z,66.03
2024-03-16T06:50:28.553Z,65.85
2024-03-16T06:51:00.548Z,66.09
2024-03-16T06:51:32.561Z,66.05
2024-03-16T06:52:04.918Z,65.79
2024-03-16T06:52:36.933Z,65.29
2024-03-16T06:53:08.850Z,64.95
2024-03-16T06:53:40.808Z,65.09
2024-03-16T06:54:13.802Z,65.27
2024-03-16T06:54:46.112Z,64.99
2024-03-16T06:55:19.594Z,64.77
2024-03-16T06:55:51.685Z,65.01
2024-03-16T06:56:23.690Z,65.13
2024-03-16T06:56:56.582Z,65.45
2024-03-16T06:57:28.545Z,65.84
2024-03-16T06:58:00.676Z,65.10
2024-03-16T06:58:32.680Z,65.47
2024-03-16T06:59:04.610Z,65.21
2024-03-16T06:59:36.556Z,65.19
2024-03-16T07:00:10.483Z,65.11
2024-03-16T07:00:42.594Z,65.17
2024-03-16T07:01:15.850Z,65.51